Time;durP1;ratioP1;P1;durP2;ratioP2;P2;SDS_P1;SDS_P2;PMS_P1;PMS_P2;Temp;Humidity;BMP_temperature;BMP_pressure;BME280_temperature;BME280_humidity;BME280_pressure;Samples;Min_cycle;Max_cycle;Signal;HPM_P1;HPM_P2
2022/03/17 00:02:18;;;;;;;163.50;77.67;;;;;;;-1.18;90.99;99335.55;1743773;81;20979;-56
2022/03/17 00:04:45;;;;;;;160.05;79.87;;;;;;;-1.20;91.17;99330.87;1746133;80;21289;-56
2022/03/17 00:07:12;;;;;;;152.62;76.95;;;;;;;-1.20;91.88;99329.08;1744977;80;20971;-56
2022/03/17 00:09:39;;;;;;;141.03;70.17;;;;;;;-1.18;91.89;99337.71;1743647;81;21434;-56
2022/03/17 00:12:08;;;;;;;127.22;66.47;;;;;;;-1.15;89.88;99339.19;1767459;80;21060;-56
2022/03/17 00:14:36;;;;;;;;;;;;;;;-1.22;90.65;99337.71;1762484;80;20971;-55
2022/03/17 00:17:03;;;;;;;119.10;59.27;;;;;;;-1.17;90.51;99345.19;1743843;81;21432;-56
2022/03/17 00:19:31;;;;;;;117.35;61.83;;;;;;;-1.19;91.42;99342.70;1743749;81;21384;-56
2022/03/17 00:21:59;;;;;;;136.43;66.53;;;;;;;-1.18;90.48;99347.02;1748186;80;21411;-56
2022/03/17 00:24:26;;;;;;;138.03;66.02;;;;;;;-1.19;89.51;99341.38;1743829;81;21237;-56
2022/03/17 00:26:54;;;;;;;133.07;63.73;;;;;;;-1.17;89.45;99346.02;1747487;80;21415;-56
2022/03/17 00:29:20;;;;;;;139.07;67.22;;;;;;;-1.16;89.48;99346.84;1743647;82;21059;-56
2022/03/17 00:31:47;;;;;;;142.98;72.20;;;;;;;-1.16;91.49;99341.52;1752168;80;21021;-56
2022/03/17 00:34:14;;;;;;;124.97;66.07;;;;;;;-1.15;91.99;99345.84;1743860;82;20983;-56
2022/03/17 00:36:41;;;;;;;127.32;66.62;;;;;;;-1.14;91.25;99340.34;1766876;80;21445;-56
2022/03/17 00:39:08;;;;;;;120.47;67.78;;;;;;;-1.12;90.45;99344.15;1765416;80;21009;-57
2022/03/17 00:41:35;;;;;;;140.32;73.95;;;;;;;-1.10;90.66;99349.33;1743899;82;21047;-56
2022/03/17 00:44:03;;;;;;;146.90;73.28;;;;;;;-1.13;90.97;99354.47;1751183;80;20989;-56
2022/03/17 00:46:30;;;;;;;140.47;70.65;;;;;;;-1.13;91.54;99349.15;1749700;80;22126;-56
2022/03/17 00:48:57;;;;;;;139.82;71.40;;;;;;;-1.12;91.44;99354.80;1749353;81;21002;-56
2022/03/17 00:51:24;;;;;;;150.20;74.55;;;;;;;-1.13;91.64;99353.14;1769586;80;21000;-55
2022/03/17 00:53:51;;;;;;;133.32;67.85;;;;;;;-1.09;91.00;99350.48;1768951;80;22059;-55
2022/03/17 00:56:18;;;;;;;151.93;77.17;;;;;;;-1.03;90.88;99355.59;1743767;82;21486;-56
2022/03/17 00:58:46;;;;;;;133.15;67.42;;;;;;;-1.01;90.70;99349.62;1743609;81;20974;-56
2022/03/17 01:01:13;;;;;;;140.65;74.92;;;;;;;-0.94;90.00;99350.55;1743742;82;21006;-56
2022/03/17 01:03:41;;;;;;;141.43;72.85;;;;;;;-0.84;89.86;99357.02;1743786;81;21101;-55
2022/03/17 01:06:08;;;;;;;114.47;54.60;;;;;;;-0.81;92.08;99363.32;1744035;82;21571;-55
2022/03/17 01:08:36;;;;;;;123.30;54.15;;;;;;;-0.79;90.06;99358.14;1743634;81;21556;-56
2022/03/17 01:11:03;;;;;;;117.80;58.70;;;;;;;-0.69;89.87;99363.24;1748167;80;21463;-55
2022/03/17 01:13:31;;;;;;;115.28;58.73;;;;;;;-0.64;89.92;99359.06;1722580;82;21415;-56
2022/03/17 01:15:58;;;;;;;112.55;55.00;;;;;;;-0.54;89.78;99358.00;1744055;82;21038;-56
2022/03/17 01:18:25;;;;;;;70.30;33.40;;;;;;;-0.53;90.09;99355.16;1743993;81;21332;-55
2022/03/17 01:20:52;;;;;;;74.40;38.73;;;;;;;-0.49;90.66;99370.30;1743770;82;21026;-56
2022/03/17 01:23:19;;;;;;;91.72;40.92;;;;;;;-0.53;91.55;99365.81;1743305;80;22095;-56
2022/03/17 01:25:46;;;;;;;119.45;55.73;;;;;;;-0.57;92.20;99358.69;1750730;80;22007;-56
2022/03/17 01:28:13;;;;;;;126.87;62.70;;;;;;;-0.65;91.96;99362.73;1745466;81;20946;-56
2022/03/17 01:30:40;;;;;;;123.82;62.55;;;;;;;-0.76;92.31;99357.81;1750731;80;21438;-56
2022/03/17 01:33:07;;;;;;;124.75;63.98;;;;;;;-0.84;92.15;99357.02;1747780;80;20994;-55
2022/03/17 01:35:34;;;;;;;127.27;65.05;;;;;;;-0.88;92.53;99364.00;1757074;80;21057;-56
2022/03/17 01:38:01;;;;;;;137.65;65.67;;;;;;;-0.88;92.41;99365.84;1747555;80;21355;-56
2022/03/17 01:40:28;;;;;;;128.78;64.10;;;;;;;-0.91;93.12;99363.53;1744726;80;21485;-56
2022/03/17 01:42:55;;;;;;;120.82;61.18;;;;;;;-0.92;93.10;99372.02;1750969;80;21041;-56
2022/03/17 01:45:22;;;;;;;122.07;59.85;;;;;;;-0.89;92.99;99366.34;1745192;80;21009;-56
2022/03/17 01:47:48;;;;;;;120.62;59.58;;;;;;;-0.87;91.66;99368.32;1746655;82;20978;-56
2022/03/17 01:50:16;;;;;;;134.52;60.50;;;;;;;-0.89;91.68;99367.67;1748686;80;21056;-56
2022/03/17 01:52:44;;;;;;;128.20;57.35;;;;;;;-0.85;91.48;99366.84;1743799;81;20991;-56
2022/03/17 01:55:11;;;;;;;136.65;60.55;;;;;;;-0.88;91.36;99373.82;1751468;80;21035;-56
2022/03/17 01:57:39;;;;;;;130.50;61.25;;;;;;;-0.91;92.44;99373.67;1743680;81;20966;-56
2022/03/17 02:00:10;;;;;;;140.60;63.65;;;;;;;-0.93;94.67;99370.37;1743773;82;20978;-56
2022/03/17 02:02:37;;;;;;;122.98;57.67;;;;;;;-0.89;95.42;99380.98;1743762;81;20998;-57
2022/03/17 02:05:04;;;;;;;115.12;52.70;;;;;;;-0.89;95.21;99383.64;1746065;80;20974;-55
2022/03/17 02:07:32;;;;;;;116.35;54.05;;;;;;;-0.87;94.44;99380.80;1745667;80;22164;-56
2022/03/17 02:10:00;;;;;;;126.22;59.63;;;;;;;-0.90;94.02;99377.99;1747939;80;20966;-56
2022/03/17 02:15:14;;;;;;;131.85;60.70;;;;;;;-0.93;95.27;99362.89;1735337;82;22065;-55
2022/03/17 02:17:41;;;;;;;122.62;55.35;;;;;;;-0.97;95.21;99369.04;1735974;82;21080;-56
2022/03/17 02:20:11;;;;;;;143.90;66.97;;;;;;;-1.00;95.11;99374.72;1743138;80;22073;-56
2022/03/17 02:22:43;;;;;;;126.35;60.08;;;;;;;-1.12;93.38;99366.77;1743539;80;21049;-56
2022/03/17 02:27:55;;;;;;;114.40;56.73;;;;;;;-1.25;93.20;99363.84;1743561;82;21006;-55
2022/03/17 02:30:23;;;;;;;114.15;55.55;;;;;;;-1.27;94.47;99361.86;1743907;82;21021;-55
2022/03/17 02:32:50;;;;;;;109.85;51.42;;;;;;;-1.27;93.46;99370.66;1743117;82;21276;-56
2022/03/17 02:35:22;;;;;;;106.25;53.25;;;;;;;-1.26;94.04;99373.64;1743646;82;20986;-55
2022/03/17 02:37:50;;;;;;;105.50;51.58;;;;;;;-1.30;95.64;99374.97;1743706;81;21005;-57
2022/03/17 02:40:17;;;;;;;96.60;50.00;;;;;;;-1.26;95.15;99381.63;1740962;80;21037;-56
2022/03/17 02:42:45;;;;;;;107.35;51.25;;;;;;;-1.26;93.63;99384.28;1743685;81;21046;-57
2022/03/17 02:45:12;;;;;;;98.07;50.03;;;;;;;-1.28;94.38;99381.45;1748087;80;21579;-57
2022/03/17 02:47:41;;;;;;;101.20;51.42;;;;;;;-1.28;95.05;99392.08;1743683;82;21155;-57
2022/03/17 02:50:10;;;;;;;107.72;45.95;;;;;;;-1.26;94.82;99390.11;1758625;80;21446;-56
2022/03/17 02:52:37;;;;;;;112.62;48.75;;;;;;;-1.18;93.63;99392.75;1743767;81;20990;-56
2022/03/17 02:55:05;;;;;;;124.18;53.52;;;;;;;-1.24;92.84;99394.25;1743947;82;20970;-57
2022/03/17 02:57:32;;;;;;;115.42;55.30;;;;;;;-1.22;93.24;99396.23;1744117;82;21446;-57
2022/03/17 02:59:59;;;;;;;110.03;52.15;;;;;;;-1.23;93.92;99390.58;1743683;82;21038;-56
2022/03/17 03:02:26;;;;;;;106.85;51.95;;;;;;;-1.22;92.68;99397.56;1743945;81;21056;-57
2022/03/17 03:04:53;;;;;;;112.08;53.15;;;;;;;-1.29;94.07;99403.22;1743765;82;20970;-56
2022/03/17 03:07:20;;;;;;;114.17;53.52;;;;;;;-1.32;95.00;99400.09;1708192;82;21410;-56
2022/03/17 03:09:47;;;;;;;96.97;46.65;;;;;;;-1.31;95.05;99396.42;1707410;84;21445;-57
2022/03/17 03:12:14;;;;;;;99.83;49.18;;;;;;;-1.33;94.46;99397.09;1706804;82;20989;-56
2022/03/17 03:14:41;;;;;;;91.02;47.93;;;;;;;-1.34;94.70;99392.78;1707714;84;21041;-57
2022/03/17 03:17:08;;;;;;;93.10;45.80;;;;;;;-1.36;93.01;99394.80;1702101;82;21017;-57
2022/03/17 03:19:34;;;;;;;98.45;45.88;;;;;;;-1.44;92.69;99391.65;1700945;84;20981;-56
2022/03/17 03:22:01;;;;;;;97.57;50.73;;;;;;;-1.49;92.98;99394.80;1700861;82;21493;-57
2022/03/17 03:24:29;;;;;;;105.92;48.92;;;;;;;-1.47;94.46;99401.27;1700742;84;21486;-56
2022/03/17 03:26:56;;;;;;;92.72;46.48;;;;;;;-1.46;94.96;99402.42;1705868;82;21068;-57
2022/03/17 03:29:23;;;;;;;89.30;46.60;;;;;;;-1.45;95.22;99406.77;1705274;84;20990;-56
2022/03/17 03:31:50;;;;;;;84.58;38.92;;;;;;;-1.52;95.76;99411.10;1707600;82;20977;-56
2022/03/17 03:34:17;;;;;;;78.62;39.98;;;;;;;-1.50;95.36;99413.59;1705504;84;21417;-57
2022/03/17 03:39:31;;;;;;;80.32;39.58;;;;;;;-1.64;92.92;99420.91;1700943;84;21131;-55
2022/03/17 03:41:58;;;;;;;83.37;42.95;;;;;;;-1.67;93.71;99424.73;1701901;82;21517;-56
2022/03/17 03:44:25;;;;;;;96.75;46.45;;;;;;;-1.63;95.15;99434.52;1701135;84;21038;-56
2022/03/17 03:46:52;;;;;;;96.08;46.55;;;;;;;-1.58;95.12;99438.85;1702159;83;21416;-56
2022/03/17 03:49:19;;;;;;;111.28;49.00;;;;;;;-1.51;94.00;99439.84;1698970;84;21027;-56
2022/03/17 03:51:46;;;;;;;131.00;58.83;;;;;;;-1.46;93.09;99442.31;1687872;84;20967;-56
2022/03/17 03:54:13;;;;;;;115.17;54.93;;;;;;;-1.47;92.79;99443.31;1744001;82;20997;-56
2022/03/17 03:56:48;;;;;;;123.13;57.58;;;;;;;-1.44;92.73;99452.30;1743705;81;20955;-56
2022/03/17 03:59:22;;;;;;;134.00;61.15;;;;;;;-1.41;92.64;99447.14;1739016;80;22168;-56
2022/03/17 04:01:56;;;;;;;114.28;51.13;;;;;;;-1.38;92.21;99449.45;1743110;82;21370;-56
2022/03/17 04:04:24;;;;;;;124.75;53.00;;;;;;;-1.42;92.14;99456.95;1743833;82;21018;-55
2022/03/17 04:06:53;;;;;;;110.78;50.70;;;;;;;-1.49;92.43;99449.80;1767915;80;20985;-56
2022/03/17 04:09:24;;;;;;;;;;;;;;;-1.53;93.82;99445.34;1765866;80;21029;-56
2022/03/17 04:11:52;;;;;;;77.50;37.35;;;;;;;-1.51;93.32;99449.98;1747763;80;22229;-56
2022/03/17 04:14:19;;;;;;;87.70;41.75;;;;;;;-1.56;92.59;99442.99;1743773;82;20955;-56
2022/03/17 04:16:46;;;;;;;89.05;43.33;;;;;;;-1.61;92.20;99438.69;1743487;81;21466;-56
2022/03/17 04:19:15;;;;;;;86.57;39.95;;;;;;;-1.69;91.94;99440.02;1743792;82;20959;-55
2022/03/17 04:21:44;;;;;;;83.58;37.70;;;;;;;-1.68;92.49;99433.70;1747609;80;21009;-56
2022/03/17 04:24:10;;;;;;;104.80;46.25;;;;;;;-1.71;92.15;99447.31;1743728;82;21412;-56
2022/03/17 04:26:37;;;;;;;100.82;44.53;;;;;;;-1.73;92.27;99452.80;1743527;82;20990;-56
2022/03/17 04:29:04;;;;;;;89.70;43.42;;;;;;;-1.74;92.16;99449.81;1743560;81;20978;-56
2022/03/17 04:31:31;;;;;;;96.95;45.52;;;;;;;-1.73;92.20;99453.30;1742541;80;21009;-56
2022/03/17 04:33:58;;;;;;;86.60;42.65;;;;;;;-1.79;94.02;99458.80;1767290;80;20981;-56
2022/03/17 04:36:25;;;;;;;89.10;46.28;;;;;;;-1.76;94.67;99465.10;1758606;80;21354;-56
2022/03/17 04:38:52;;;;;;;92.05;43.42;;;;;;;-1.69;94.52;99461.29;1768537;80;21002;-55
2022/03/17 04:41:19;;;;;;;95.70;43.98;;;;;;;-1.65;94.79;99463.93;1748137;80;21403;-55
2022/03/17 04:43:46;;;;;;;88.20;44.25;;;;;;;-1.65;95.11;99465.27;1747719;80;21068;-56
2022/03/17 04:46:13;;;;;;;89.65;43.42;;;;;;;-1.58;94.12;99462.27;1757994;80;21010;-56
2022/03/17 04:48:40;;;;;;;84.13;41.25;;;;;;;-1.61;94.54;99465.28;1743614;81;21053;-56
2022/03/17 04:51:07;;;;;;;81.63;39.78;;;;;;;-1.60;94.63;99468.27;1743675;82;21010;-55
2022/03/17 04:53:34;;;;;;;86.22;42.35;;;;;;;-1.62;93.28;99470.73;1743561;81;21407;-56
2022/03/17 04:56:10;;;;;;;81.47;40.35;;;;;;;-1.67;93.34;99472.58;1743718;82;20958;-56
2022/03/17 04:58:39;;;;;;;113.72;48.83;;;;;;;-1.65;93.81;99472.41;1743784;81;21080;-56
2022/03/17 05:01:06;;;;;;;115.57;60.63;;;;;;;-1.61;93.42;99478.57;1743542;82;21199;-56
2022/03/17 05:03:33;;;;;;;103.60;46.20;;;;;;;-1.56;93.03;99489.52;1743702;81;21027;-56
2022/03/17 05:06:01;;;;;;;130.50;57.17;;;;;;;-1.53;92.58;99483.89;1743671;82;20971;-56
2022/03/17 05:08:28;;;;;;;95.55;43.98;;;;;;;-1.58;92.07;99482.22;1743532;81;21403;-56
2022/03/17 05:10:55;;;;;;;153.90;66.67;;;;;;;-1.54;92.07;99484.03;1748263;80;21423;-55
2022/03/17 05:13:23;;;;;;;115.80;56.75;;;;;;;-1.60;91.83;99484.72;1743545;81;21538;-55
2022/03/17 05:15:51;;;;;;;155.22;64.75;;;;;;;-1.62;91.82;99484.89;1747519;80;21026;-55
2022/03/17 05:18:19;;;;;;;129.80;60.88;;;;;;;-1.61;91.81;99487.05;1722210;82;21077;-55
2022/03/17 05:20:46;;;;;;;138.00;60.67;;;;;;;-1.64;92.00;99494.00;1743671;82;21039;-56
2022/03/17 05:23:15;;;;;;;95.30;46.05;;;;;;;-1.61;92.26;99488.38;1743511;81;21435;-56
2022/03/17 05:25:44;;;;;;;109.80;52.03;;;;;;;-1.57;91.95;99493.17;1743728;82;22128;-56
2022/03/17 05:28:11;;;;;;;118.93;50.38;;;;;;;-1.59;91.64;99502.33;1743839;81;21018;-55
2022/03/17 05:30:39;;;;;;;118.97;53.45;;;;;;;-1.61;91.58;99505.16;1743987;82;21061;-56
2022/03/17 05:33:07;;;;;;;127.32;54.65;;;;;;;-1.63;91.73;99507.63;1743826;81;20984;-55
2022/03/17 05:35:34;;;;;;;100.25;46.05;;;;;;;-1.62;91.87;99496.84;1743958;82;21013;-56
2022/03/17 05:38:01;;;;;;;108.72;50.90;;;;;;;-1.57;91.96;99496.33;1744106;81;21414;-56
2022/03/17 05:40:28;;;;;;;102.47;47.23;;;;;;;-1.60;92.46;99498.00;1743855;82;21014;-56
2022/03/17 05:43:00;;;;;;;103.55;47.13;;;;;;;-1.54;92.60;99498.18;1743776;81;21447;-56
2022/03/17 05:45:28;;;;;;;87.78;42.73;;;;;;;-1.57;93.37;99495.83;1743749;82;20994;-56
2022/03/17 05:47:57;;;;;;;102.87;46.00;;;;;;;-1.51;93.34;99498.34;1747667;80;21530;-56
2022/03/17 05:50:28;;;;;;;99.13;48.13;;;;;;;-1.50;93.23;99496.84;1746668;80;21334;-55
2022/03/17 05:52:55;;;;;;;96.02;47.17;;;;;;;-1.46;93.41;99494.66;1743822;80;21541;-56
2022/03/17 05:55:25;;;;;;;100.58;42.20;;;;;;;-1.38;92.59;99497.82;1757897;80;21056;-56
2022/03/17 05:57:54;;;;;;;86.28;42.33;;;;;;;-1.37;92.22;99494.98;1763915;80;20974;-56
2022/03/17 06:00:23;;;;;;;79.47;36.03;;;;;;;-1.33;92.26;99501.65;1749434;80;21026;-56
2022/03/17 06:02:51;;;;;;;79.77;39.40;;;;;;;-1.35;91.77;99491.69;1745408;82;21039;-55
2022/03/17 06:05:18;;;;;;;87.12;41.05;;;;;;;-1.34;91.75;99492.52;1753401;80;21044;-56
2022/03/17 06:07:47;;;;;;;81.40;34.40;;;;;;;-1.39;91.62;99486.86;1743646;82;20994;-57
2022/03/17 06:10:16;;;;;;;62.43;32.40;;;;;;;-1.44;91.75;99485.55;1747803;81;21026;-56
2022/03/17 06:12:44;;;;;;;80.95;40.40;;;;;;;-1.46;91.84;99480.87;1769546;81;21014;-56
2022/03/17 06:15:12;;;;;;;63.10;34.73;;;;;;;-1.70;92.80;99490.20;1751073;81;21887;-58
2022/03/17 06:17:44;;;;;;;80.62;42.93;;;;;;;-1.61;91.89;99481.73;1721777;82;21457;-56
2022/03/17 06:20:13;;;;;;;85.67;43.38;;;;;;;-1.69;92.04;99485.21;1748651;80;21494;-56
2022/03/17 06:22:42;;;;;;;89.22;44.80;;;;;;;-1.63;92.81;99485.86;1722561;82;20974;-56
2022/03/17 06:25:11;;;;;;;97.37;48.68;;;;;;;-1.46;92.35;99491.50;1744092;81;21523;-55
2022/03/17 06:27:38;;;;;;;89.37;46.42;;;;;;;-1.45;92.63;99489.20;1708078;84;21085;-56
2022/03/17 06:30:07;;;;;;;90.62;47.05;;;;;;;-1.31;92.37;99486.85;1754105;80;21050;-55
2022/03/17 06:32:34;;;;;;;80.35;42.27;;;;;;;-1.19;92.43;99488.18;1744060;81;21384;-56
2022/03/17 06:35:01;;;;;;;104.10;49.42;;;;;;;-1.12;91.39;99485.66;1740257;80;21016;-54
2022/03/17 06:37:28;;;;;;;90.77;44.50;;;;;;;-1.07;92.11;99476.17;1741068;80;21572;-55
2022/03/17 06:39:55;;;;;;;102.92;52.13;;;;;;;-0.90;91.63;99488.94;1750506;80;21089;-55
2022/03/17 06:42:22;;;;;;;101.12;51.60;;;;;;;-0.77;91.46;99487.06;1743691;82;21006;-56
2022/03/17 06:44:49;;;;;;;124.33;57.38;;;;;;;-0.64;91.23;99496.69;1761836;80;20966;-56
2022/03/17 06:47:16;;;;;;;105.35;51.83;;;;;;;-0.44;91.46;99494.43;1762611;80;21449;-56
2022/03/17 06:49:43;;;;;;;106.22;53.50;;;;;;;-0.36;90.69;99495.73;1734805;80;21532;-55
2022/03/17 06:52:10;;;;;;;89.70;50.70;;;;;;;-0.22;90.62;99500.33;1748941;80;21281;-56
2022/03/17 06:54:37;;;;;;;101.22;50.65;;;;;;;-0.11;90.46;99499.93;1756590;80;21017;-56
2022/03/17 06:57:04;;;;;;;90.53;45.73;;;;;;;0.01;90.46;99500.38;1733777;81;21041;-55
2022/03/17 06:59:31;;;;;;;83.78;43.58;;;;;;;0.09;90.24;99497.66;1740896;80;21088;-55
2022/03/17 07:01:58;;;;;;;94.07;49.40;;;;;;;0.02;89.55;99499.88;1755778;80;20993;-55
2022/03/17 07:04:25;;;;;;;95.55;49.58;;;;;;;0.15;89.84;99504.94;1758905;80;21072;-56
2022/03/17 07:06:52;;;;;;;92.40;47.85;;;;;;;0.27;89.92;99500.05;1741588;81;21013;-55
2022/03/17 07:09:18;;;;;;;86.80;48.40;;;;;;;0.70;89.31;99502.53;1748290;80;20979;-56
2022/03/17 07:11:47;;;;;;;98.45;51.28;;;;;;;1.33;87.33;99497.22;1756611;80;21045;-56
2022/03/17 07:14:13;;;;;;;95.38;50.98;;;;;;;2.06;85.54;99502.15;1760799;80;20986;-55
2022/03/17 07:16:40;;;;;;;96.55;53.58;;;;;;;2.74;83.35;99500.76;1738219;80;21006;-56
2022/03/17 07:19:07;;;;;;;92.00;56.45;;;;;;;3.25;78.95;99507.22;1753761;80;20993;-56
2022/03/17 07:21:34;;;;;;;98.07;62.67;;;;;;;3.85;78.50;99515.06;1742769;80;21032;-57
2022/03/17 07:24:01;;;;;;;98.92;62.03;;;;;;;4.52;77.31;99512.03;1742637;80;21029;-55
2022/03/17 07:26:28;;;;;;;102.53;64.75;;;;;;;5.20;77.19;99508.63;1745766;80;21065;-56
2022/03/17 07:28:56;;;;;;;107.90;66.53;;;;;;;5.82;75.10;99510.48;1749277;80;21821;-56
2022/03/17 07:31:26;;;;;;;93.37;65.50;;;;;;;6.32;73.72;99508.80;1746618;80;21008;-57
2022/03/17 07:33:53;;;;;;;104.25;67.60;;;;;;;6.86;75.64;99515.50;1748048;80;21457;-57
2022/03/17 07:36:21;;;;;;;105.03;69.95;;;;;;;7.47;75.82;99513.39;1743288;80;21471;-56
2022/03/17 07:38:48;;;;;;;119.28;75.03;;;;;;;8.23;77.79;99505.86;1758331;80;21518;-56
2022/03/17 07:41:15;;;;;;;90.35;61.50;;;;;;;8.73;76.67;99516.70;1750279;80;20999;-57
2022/03/17 07:43:43;;;;;;;86.02;57.03;;;;;;;9.02;74.87;99514.98;1752852;80;21116;-58
2022/03/17 07:46:11;;;;;;;109.75;66.05;;;;;;;9.24;72.05;99512.54;1744974;80;32568;-59
2022/03/17 07:48:38;;;;;;;80.42;55.48;;;;;;;9.41;69.72;99515.90;1757679;80;21933;-58
2022/03/17 07:51:05;;;;;;;91.40;59.88;;;;;;;9.21;68.24;99519.75;1741630;80;21001;-59
2022/03/17 07:53:32;;;;;;;81.72;56.02;;;;;;;9.62;68.29;99519.34;1759160;80;21028;-58
2022/03/17 07:55:59;;;;;;;82.80;56.88;;;;;;;10.12;66.79;99525.01;1746037;80;20974;-57
2022/03/17 07:58:26;;;;;;;84.50;56.40;;;;;;;10.69;67.61;99528.30;1745659;80;21446;-56
2022/03/17 08:00:55;;;;;;;85.62;58.38;;;;;;;10.83;61.01;99530.16;1754321;80;21121;-57
2022/03/17 08:03:22;;;;;;;82.80;56.85;;;;;;;11.39;61.21;99534.62;1757204;80;21490;-56
2022/03/17 08:05:49;;;;;;;68.57;50.63;;;;;;;11.93;61.28;99542.19;1753149;80;21098;-57
2022/03/17 08:08:16;;;;;;;70.85;50.25;;;;;;;12.11;53.72;99536.45;1727750;80;21026;-57
2022/03/17 08:10:43;;;;;;;66.97;48.78;;;;;;;12.72;56.94;99537.13;1762034;80;21080;-58
2022/03/17 08:13:10;;;;;;;54.98;42.00;;;;;;;13.37;57.95;99536.64;1750564;80;21033;-58
2022/03/17 08:15:38;;;;;;;60.65;41.23;;;;;;;13.79;53.94;99539.38;1749490;80;21067;-57
2022/03/17 08:18:06;;;;;;;60.37;45.00;;;;;;;14.27;47.86;99525.98;1750242;80;21738;-57
2022/03/17 08:20:39;;;;;;;63.75;46.37;;;;;;;14.58;50.88;99531.00;1755032;80;20985;-57
2022/03/17 08:23:06;;;;;;;59.93;43.38;;;;;;;15.37;50.69;99534.33;1744771;80;21440;-57
2022/03/17 08:25:34;;;;;;;54.50;41.88;;;;;;;15.19;48.96;99529.70;1751819;80;20989;-57
2022/03/17 08:28:02;;;;;;;55.12;41.50;;;;;;;15.43;45.05;99533.24;1754014;80;21053;-57
2022/03/17 08:30:32;;;;;;;59.67;44.10;;;;;;;15.48;40.28;99528.61;1751913;80;20994;-58
2022/03/17 08:32:59;;;;;;;52.73;42.33;;;;;;;16.34;45.53;99522.63;1750042;80;21397;-58
2022/03/17 08:35:27;;;;;;;54.83;43.48;;;;;;;16.84;44.80;99521.55;1751020;80;21092;-58
2022/03/17 08:37:57;;;;;;;60.20;46.40;;;;;;;17.45;43.70;99513.38;1752323;80;21049;-57
2022/03/17 08:40:23;;;;;;;54.05;43.65;;;;;;;17.79;42.18;99509.78;1752322;80;21060;-58
2022/03/17 08:42:50;;;;;;;60.78;45.45;;;;;;;18.34;42.05;99508.27;1754326;80;22230;-58
2022/03/17 08:50:47;;;;;;;58.60;43.50;;;;;;;19.49;36.85;99510.66;1744098;80;20982;-59
2022/03/17 08:53:15;;;;;;;55.67;45.40;;;;;;;20.11;38.02;99511.14;1753131;80;21077;-57
2022/03/17 08:55:41;;;;;;;60.55;44.60;;;;;;;20.14;35.25;99508.58;1754197;80;21638;-58
2022/03/17 08:58:08;;;;;;;52.45;43.83;;;;;;;20.39;35.79;99511.92;1752371;80;21565;-57
2022/03/17 09:00:35;;;;;;;56.55;43.28;;;;;;;21.12;35.04;99508.88;1744167;80;21085;-58
2022/03/17 09:03:03;;;;;;;51.15;42.73;;;;;;;21.48;33.90;99512.70;1750594;80;21013;-58
2022/03/17 09:05:32;;;;;;;54.15;42.67;;;;;;;21.73;33.32;99507.89;1752637;80;20985;-58
2022/03/17 09:08:00;;;;;;;53.40;43.20;;;;;;;22.04;32.37;99508.41;1763443;80;21119;-58
2022/03/17 09:10:27;;;;;;;53.70;43.20;;;;;;;19.99;33.04;99500.07;1745606;80;21028;-57
2022/03/17 09:13:07;;;;;;;57.75;42.67;;;;;;;18.23;34.82;99507.59;1751448;80;21096;-57
2022/03/17 09:15:25;;;;;;;64.45;44.30;;;;;;;16.80;36.84;99511.44;1749304;80;21122;-57
2022/03/17 09:17:52;;;;;;;60.20;43.28;;;;;;;15.59;37.58;99502.62;1752346;80;21073;-57
2022/03/17 09:20:19;;;;;;;60.75;42.60;;;;;;;14.40;38.23;99506.37;1748778;80;21623;-57
2022/03/17 09:22:49;;;;;;;59.27;42.25;;;;;;;13.33;39.32;99500.12;1749870;80;21031;-56
2022/03/17 09:25:18;;;;;;;56.45;40.52;;;;;;;12.63;40.71;99510.93;1689943;83;20998;-57
2022/03/17 09:27:44;;;;;;;92.12;38.58;;;;;;;11.74;41.70;99507.69;1754955;80;21100;-57
2022/03/17 09:30:12;;;;;;;55.08;36.17;;;;;;;11.22;42.50;99510.74;1745984;80;21431;-57
2022/03/17 09:32:40;;;;;;;57.65;37.65;;;;;;;10.89;42.07;99508.30;1751040;80;21604;-56
2022/03/17 09:35:08;;;;;;;55.10;36.35;;;;;;;10.39;43.45;99509.03;1745781;80;21450;-57
2022/03/17 09:37:35;;;;;;;51.70;32.93;;;;;;;10.20;43.98;99510.80;1747118;80;21365;-57
2022/03/17 09:40:01;;;;;;;51.73;33.58;;;;;;;9.84;44.76;99507.38;1745535;80;21127;-56
2022/03/17 09:42:28;;;;;;;51.75;34.20;;;;;;;9.70;44.57;99506.80;1749941;80;21107;-57
2022/03/17 09:44:55;;;;;;;43.63;27.52;;;;;;;9.63;45.25;99505.27;1743440;80;21761;-57
2022/03/17 09:47:26;;;;;;;50.70;30.72;;;;;;;9.33;46.35;99503.55;1744557;80;21139;-57
2022/03/17 09:49:53;;;;;;;47.85;27.22;;;;;;;9.33;46.35;99503.55;1750054;80;21660;-57
2022/03/17 09:52:20;;;;;;;33.60;19.82;;;;;;;9.36;45.40;99504.95;1750971;80;21411;-57
2022/03/17 09:54:48;;;;;;;44.53;22.58;;;;;;;9.25;42.73;99510.66;1751781;80;21487;-56
2022/03/17 09:57:16;;;;;;;39.03;21.62;;;;;;;9.23;43.23;99513.60;1750936;80;21457;-57
2022/03/17 09:59:48;;;;;;;45.15;24.77;;;;;;;9.12;42.10;99517.63;1752433;80;21544;-57
2022/03/17 10:02:16;;;;;;;35.58;22.70;;;;;;;9.13;43.32;99513.33;1758241;80;21036;-57
2022/03/17 10:04:50;;;;;;;37.90;22.85;;;;;;;9.16;43.34;99510.18;1753484;80;21036;-57
2022/03/17 10:07:20;;;;;;;39.58;24.43;;;;;;;8.94;43.24;99508.55;1745714;80;20998;-56
2022/03/17 10:09:50;;;;;;;52.58;29.35;;;;;;;8.94;42.40;99514.50;1743404;80;21522;-57
2022/03/17 10:12:22;;;;;;;34.73;23.30;;;;;;;9.07;43.52;99498.59;1726144;80;21023;-57
2022/03/17 10:14:51;;;;;;;38.48;23.95;;;;;;;9.09;43.91;99497.83;1752124;80;21492;-57
2022/03/17 10:17:39;;;;;;;42.85;24.05;;;;;;;9.17;44.14;99502.36;1750755;80;20995;-57
2022/03/17 10:20:22;;;;;;;35.30;21.73;;;;;;;9.11;43.89;99505.99;1752140;80;21021;-57
2022/03/17 10:22:53;;;;;;;38.15;21.65;;;;;;;9.20;42.92;99508.64;1741996;80;21075;-57
2022/03/17 10:25:23;;;;;;;35.70;19.40;;;;;;;9.16;42.88;99505.30;1746711;80;20992;-57
2022/03/17 10:27:50;;;;;;;29.85;16.80;;;;;;;9.24;42.36;99507.66;1753859;80;21021;-57
2022/03/17 10:30:32;;;;;;;27.37;17.82;;;;;;;9.28;42.56;99504.77;1753354;80;21119;-56
2022/03/17 10:32:58;;;;;;;27.60;17.02;;;;;;;9.27;41.64;99503.95;1754419;80;21408;-57
2022/03/17 10:35:34;;;;;;;28.20;17.10;;;;;;;9.10;41.83;99497.59;1752647;80;21606;-57
2022/03/17 10:38:10;;;;;;;27.25;18.50;;;;;;;9.14;42.47;99497.40;1746535;80;21014;-57
2022/03/17 10:40:37;;;;;;;30.75;17.15;;;;;;;9.21;43.02;99495.41;1747753;80;21489;-57
2022/03/17 10:43:23;;;;;;;26.45;15.45;;;;;;;9.28;41.82;99496.66;1751461;80;20930;-57
2022/03/17 10:46:17;;;;;;;23.12;14.23;;;;;;;9.31;41.15;99500.23;1750383;80;21056;-57
2022/03/17 10:49:02;;;;;;;21.35;14.35;;;;;;;9.34;41.52;99497.07;1753270;80;21159;-57
2022/03/17 10:51:41;;;;;;;23.10;16.23;;;;;;;9.28;40.83;99498.00;1754674;80;21012;-56
2022/03/17 10:54:19;;;;;;;;;;;;;;;9.30;40.65;99491.82;1756836;80;21068;-57
2022/03/17 10:57:11;;;;;;;23.90;14.10;;;;;;;9.21;40.92;99491.35;1747303;80;20538;-56
2022/03/17 10:59:44;;;;;;;21.33;12.65;;;;;;;9.28;40.96;99494.77;1742123;80;21044;-57
2022/03/17 11:02:12;;;;;;;21.40;13.22;;;;;;;9.23;38.73;99492.49;1750310;80;21111;-57
2022/03/17 11:04:41;;;;;;;28.70;14.20;;;;;;;9.31;39.79;99494.31;1749036;80;21233;-57
2022/03/17 11:07:13;;;;;;;28.52;16.82;;;;;;;9.45;40.56;99498.94;1750108;80;21003;-56
2022/03/17 11:09:38;;;;;;;28.07;15.55;;;;;;;9.31;40.35;99500.23;1752797;80;21007;-56
2022/03/17 11:12:07;;;;;;;26.37;15.48;;;;;;;9.27;40.46;99492.30;1754383;80;21142;-57
2022/03/17 11:14:47;;;;;;;26.80;12.20;;;;;;;9.29;41.11;99488.30;1753230;80;21089;-57
2022/03/17 11:17:31;;;;;;;30.05;16.02;;;;;;;9.44;40.92;99489.71;1756338;80;21058;-56
2022/03/17 11:20:04;;;;;;;23.32;15.63;;;;;;;9.30;41.39;99489.12;1693040;83;21434;-56
2022/03/17 11:22:33;;;;;;;23.90;16.95;;;;;;;9.25;40.16;99491.72;1745468;80;21032;-57
2022/03/17 11:25:19;;;;;;;;;;;;;;;9.22;40.72;99483.53;1746873;80;21509;-56
2022/03/17 11:27:47;;;;;;;25.20;13.85;;;;;;;9.27;41.33;99487.72;1741568;80;20999;-57
2022/03/17 11:30:14;;;;;;;29.10;15.23;;;;;;;9.40;40.97;99485.31;1751431;80;21170;-57
2022/03/17 11:32:55;;;;;;;23.00;14.75;;;;;;;9.51;42.17;99483.65;1752013;80;20983;-56
2022/03/17 11:35:26;;;;;;;27.32;16.00;;;;;;;9.45;40.55;99479.18;1751164;80;21544;-57
2022/03/17 11:38:15;;;;;;;28.57;16.90;;;;;;;9.44;40.74;99488.36;1746126;80;20989;-56